Garden City, Kansas
Current Conditions -  °F | °C
As of 7:54 AM on Monday 20 Oct 2014 (Local Time) from KGCK Reporting Station
Clear Clear  
Wind Chill: 42°   Ceiling: Unl
Heat Index: 46°   Visibility: 9mi
Dew Point: 44°   Wind: 8mph
Humidity: 93%   Direction: 360°N
Pressure: 30.09"   Gusts: NA
Location:  37.97°N, 100.87°W
Report Text: KGCK 201254Z 36007KT 9SM CLR 08/07 A3009 RMK AO2 SLP182 T00780067
Loading
Personal Weather Stations






























Interactive Weather Map
Tropical Storm Tracking
New forecast layout! Learn more

10-Day Weather Forecast

Advertisements
Track Severe Weather on mobile